createdAt,value
2023-05-17T00:03:16.111Z,13.56
2023-05-17T00:13:42.719Z,13.54
2023-05-17T00:24:09.457Z,13.41
2023-05-17T00:34:35.135Z,13.25
2023-05-17T00:45:00.967Z,13.20
2023-05-17T00:55:27.700Z,13.06
2023-05-17T01:05:53.650Z,13.03
2023-05-17T01:16:41.819Z,12.91
2023-05-17T01:27:08.511Z,12.82
2023-05-17T01:37:34.530Z,12.81
2023-05-17T01:48:09.732Z,12.87
2023-05-17T01:58:46.327Z,12.97
2023-05-17T02:09:12.242Z,13.02
2023-05-17T02:19:37.972Z,13.09
2023-05-17T02:30:04.920Z,13.13
2023-05-17T02:40:30.627Z,13.19
2023-05-17T02:50:56.446Z,13.16
2023-05-17T03:01:22.569Z,13.10
2023-05-17T03:11:48.314Z,13.06
2023-05-17T03:22:13.895Z,13.09
2023-05-17T03:32:41.596Z,13.04
2023-05-17T03:43:07.983Z,12.99
2023-05-17T03:53:34.260Z,12.86
2023-05-17T04:04:01.617Z,12.78
2023-05-17T04:14:27.255Z,12.68
2023-05-17T04:24:53.157Z,12.66
2023-05-17T04:35:19.310Z,12.63
2023-05-17T04:45:45.212Z,12.54
2023-05-17T04:56:11.420Z,12.45
2023-05-17T05:17:21.184Z,12.49
2023-05-17T05:27:46.880Z,12.51
2023-05-17T05:38:13.132Z,12.50
2023-05-17T05:48:42.046Z,12.48
2023-05-17T05:59:08.334Z,12.39
2023-05-17T06:09:34.115Z,12.41
2023-05-17T06:20:00.169Z,12.40
2023-05-17T06:30:28.162Z,12.44
2023-05-17T06:40:56.294Z,12.41
2023-05-17T06:51:22.729Z,12.29
2023-05-17T07:01:50.518Z,12.02
2023-05-17T07:12:14.966Z,11.87
2023-05-17T07:22:41.554Z,11.76
2023-05-17T07:33:07.899Z,11.73
2023-05-17T07:43:33.724Z,11.56
2023-05-17T07:53:59.799Z,11.37
2023-05-17T08:04:25.690Z,11.35
2023-05-17T08:14:52.061Z,11.32
2023-05-17T08:25:18.103Z,11.37
2023-05-17T08:35:44.219Z,11.41
2023-05-17T08:46:11.321Z,11.35
2023-05-17T08:56:40.312Z,11.21
2023-05-17T09:07:06.544Z,11.12
2023-05-17T09:17:34.131Z,11.03
2023-05-17T09:28:03.953Z,10.99
2023-05-17T09:38:31.113Z,11.07
2023-05-17T09:48:59.938Z,11.16
2023-05-17T09:59:28.824Z,11.21
2023-05-17T10:09:55.904Z,11.23
2023-05-17T10:20:23.556Z,11.16
2023-05-17T10:30:51.529Z,11.00
2023-05-17T10:41:17.153Z,11.03
2023-05-17T10:51:42.875Z,10.97
2023-05-17T11:02:10.323Z,11.07
2023-05-17T11:12:40.521Z,11.21
2023-05-17T11:23:08.370Z,11.17
2023-05-17T11:33:43.807Z,11.08
2023-05-17T11:44:26.250Z,11.01
2023-05-17T11:54:53.103Z,11.03
2023-05-17T12:05:23.763Z,10.97
2023-05-17T12:15:56.374Z,10.94
2023-05-17T12:26:23.427Z,10.86
2023-05-17T12:36:49.970Z,10.84
2023-05-17T12:47:15.975Z,10.89
2023-05-17T12:57:49.539Z,10.72
2023-05-17T13:08:25.128Z,10.56
2023-05-17T13:18:53.171Z,10.71
2023-05-17T13:29:23.083Z,10.72
2023-05-17T13:39:56.752Z,10.77
2023-05-17T13:50:24.057Z,10.90
2023-05-17T14:00:49.808Z,10.95
2023-05-17T14:11:15.769Z,10.97
2023-05-17T14:21:41.744Z,10.99
2023-05-17T14:32:08.817Z,11.12
2023-05-17T14:42:34.705Z,11.16
2023-05-17T14:53:01.390Z,11.17
2023-05-17T15:03:27.366Z,11.13
2023-05-17T15:13:52.989Z,11.18
2023-05-17T15:24:18.751Z,11.23
2023-05-17T15:34:45.496Z,11.20
2023-05-17T15:45:12.560Z,11.19
2023-05-17T15:55:38.657Z,11.16
2023-05-17T16:06:05.512Z,11.20
2023-05-17T16:16:31.636Z,11.32
2023-05-17T16:26:58.094Z,11.37
2023-05-17T16:37:24.169Z,11.59
2023-05-17T16:47:50.686Z,11.63
2023-05-17T16:58:16.299Z,11.73
2023-05-17T17:08:42.161Z,11.65
2023-05-17T17:19:08.041Z,11.71
2023-05-17T17:29:34.613Z,11.53
2023-05-17T17:40:00.445Z,11.55
2023-05-17T17:50:26.045Z,11.76
2023-05-17T18:00:52.081Z,11.93
2023-05-17T18:11:18.699Z,11.81
2023-05-17T18:21:44.906Z,11.75
2023-05-17T18:32:12.125Z,11.85
2023-05-17T18:42:38.071Z,11.96
2023-05-17T18:53:04.184Z,11.89
2023-05-17T19:03:29.844Z,11.65
2023-05-17T19:13:55.811Z,11.47
2023-05-17T19:24:21.473Z,11.54
2023-05-17T19:34:47.448Z,11.78
2023-05-17T19:45:14.811Z,11.79
2023-05-17T19:55:41.187Z,11.92
2023-05-17T20:06:07.232Z,12.06
2023-05-17T20:16:33.078Z,12.09
2023-05-17T20:26:59.487Z,12.20
2023-05-17T20:37:25.662Z,12.40
2023-05-17T20:47:52.431Z,12.42
2023-05-17T20:58:18.437Z,12.38
2023-05-17T21:08:44.845Z,12.31
2023-05-17T21:19:10.621Z,12.20
2023-05-17T21:29:36.413Z,11.80
2023-05-17T21:40:02.182Z,11.48
2023-05-17T21:50:28.500Z,11.58
2023-05-17T22:00:54.799Z,11.83
2023-05-17T22:11:22.972Z,11.89
2023-05-17T22:21:48.643Z,12.04
2023-05-17T22:32:15.643Z,11.85
2023-05-17T22:42:43.299Z,11.56
2023-05-17T22:53:11.312Z,11.48
2023-05-17T23:03:37.546Z,11.55
2023-05-17T23:14:03.793Z,11.61
2023-05-17T23:24:29.610Z,11.35
2023-05-17T23:34:58.533Z,11.18
2023-05-17T23:45:25.041Z,11.09
2023-05-17T23:55:51.116Z,10.91
